Time;durP1;ratioP1;P1;durP2;ratioP2;P2;SDS_P1;SDS_P2;PMS_P1;PMS_P2;Temp;Humidity;BMP_temperature;BMP_pressure;BME280_temperature;BME280_humidity;BME280_pressure;Samples;Min_cycle;Max_cycle;Signal;HPM_P1;HPM_P2
2023/07/21 00:02:18;;;;;;;12.13;9.13;;;;;;;27.56;100.00;98870.53;5079822;28;20595;-80
2023/07/21 00:04:44;;;;;;;12.35;8.27;;;;;;;27.50;100.00;98876.97;5084998;28;20426;-80
2023/07/21 00:07:09;;;;;;;15.32;8.82;;;;;;;27.47;100.00;98867.47;5078660;28;20024;-81
2023/07/21 00:09:35;;;;;;;16.55;9.40;;;;;;;27.45;100.00;98874.28;5082917;28;20483;-79
2023/07/21 00:12:00;;;;;;;16.80;8.68;;;;;;;27.47;100.00;98877.50;5079618;28;20461;-81
2023/07/21 00:14:28;;;;;;;11.90;8.93;;;;;;;27.40;100.00;98883.19;5077761;28;20036;-80
2023/07/21 00:16:53;;;;;;;12.98;8.82;;;;;;;27.35;100.00;98885.06;5080132;28;20032;-81
2023/07/21 00:19:19;;;;;;;;;;;;;;;27.30;100.00;98878.56;5081240;28;20040;-81
2023/07/21 00:21:45;;;;;;;13.65;8.80;;;;;;;27.26;100.00;98888.31;5079108;28;19916;-81
2023/07/21 00:24:11;;;;;;;16.15;9.23;;;;;;;27.19;100.00;98887.75;5078846;28;20373;-81
2023/07/21 00:26:36;;;;;;;;;;;;;;;27.24;100.00;98885.06;5079087;28;20016;-80
2023/07/21 00:29:03;;;;;;;;;;;;;;;27.18;100.00;98886.13;5077234;28;19973;-80
2023/07/21 00:31:29;;;;;;;;;;;;;;;27.22;100.00;98876.38;5062511;28;19917;-81
2023/07/21 00:33:55;;;;;;;;;;;;;;;27.22;100.00;98870.13;5081606;28;19962;-81
2023/07/21 00:36:20;;;;;;;;;;;;;;;27.22;100.00;98870.94;5079256;28;19923;-80
2023/07/21 00:38:47;;;;;;;;;;;;;;;27.25;100.00;98854.19;5068329;28;19912;-80
2023/07/21 00:41:13;;;;;;;;;;;;;;;27.27;100.00;98864.75;5078848;28;20291;-81
2023/07/21 00:43:38;;;;;;;;;;;;;;;27.27;100.00;98862.84;5065664;28;19919;-81
2023/07/21 00:46:04;;;;;;;;;;;;;;;27.29;100.00;98860.69;5060574;28;19942;-80
2023/07/21 00:48:29;;;;;;;;;;;;;;;27.29;100.00;98859.88;5079679;28;19976;-80
2023/07/21 00:50:55;;;;;;;;;;;;;;;27.28;100.00;98853.63;5055730;28;19951;-79
2023/07/21 00:53:20;;;;;;;;;;;;;;;27.22;100.00;98865.53;5061404;28;20315;-79
2023/07/21 00:55:47;;;;;;;;;;;;;;;27.16;100.00;98861.19;5061496;28;19916;-79
2023/07/21 00:58:13;;;;;;;;;;;;;;;27.17;100.00;98857.41;5082119;28;19924;-81
2023/07/21 01:00:39;;;;;;;;;;;;;;;27.13;100.00;98867.16;5076405;28;19927;-80
2023/07/21 01:03:05;;;;;;;9.35;7.95;;;;;;;26.91;100.00;98871.97;5065709;28;20038;-81
2023/07/21 01:05:34;;;;;;;11.15;8.45;;;;;;;26.69;100.00;98865.84;5080321;28;20047;-80
2023/07/21 01:08:01;;;;;;;;;;;;;;;26.69;100.00;98869.38;5061470;28;19923;-80
2023/07/21 01:10:27;;;;;;;;;;;;;;;26.66;100.00;98872.63;5054865;28;19960;-81
2023/07/21 01:12:53;;;;;;;;;;;;;;;26.64;100.00;98869.34;5080486;28;19961;-80
2023/07/21 01:15:18;;;;;;;;;;;;;;;26.57;100.00;98868.78;5079508;28;19916;-80
2023/07/21 01:17:45;;;;;;;;;;;;;;;26.41;100.00;98865.19;5082722;28;19934;-80
2023/07/21 01:20:15;;;;;;;;;;;;;;;26.38;100.00;98865.72;5077683;28;19917;-80
2023/07/21 01:22:44;;;;;;;;;;;;;;;26.35;100.00;98868.13;5080667;28;20003;-80
2023/07/21 01:25:11;;;;;;;;;;;;;;;26.25;100.00;98873.47;5081988;28;19922;-80
2023/07/21 01:27:39;;;;;;;;;;;;;;;26.20;100.00;98866.13;5075422;28;19989;-80
2023/07/21 01:30:06;;;;;;;;;;;;;;;26.10;100.00;98874.13;5062106;28;19947;-80
2023/07/21 01:32:36;;;;;;;;;;;;;;;26.08;100.00;98881.72;5074872;28;20448;-81
2023/07/21 01:35:02;;;;;;;;;;;;;;;26.09;100.00;98883.34;5061918;28;19916;-80
2023/07/21 01:37:27;;;;;;;;;;;;;;;26.10;100.00;98868.72;5080350;28;20026;-81
2023/07/21 01:39:53;;;;;;;;;;;;;;;26.05;100.00;98872.22;5082047;28;19912;-80
2023/07/21 01:42:19;;;;;;;;;;;;;;;26.07;100.00;98869.25;5061641;28;20263;-81
2023/07/21 01:44:44;;;;;;;;;;;;;;;25.99;100.00;98861.63;5061824;28;19938;-80
2023/07/21 01:47:10;;;;;;;;;;;;;;;25.94;100.00;98869.69;5078905;28;20637;-79
2023/07/21 01:49:35;;;;;;;;;;;;;;;25.95;100.00;98871.34;5043260;28;20007;-79
2023/07/21 01:52:03;;;;;;;;;;;;;;;25.91;100.00;98872.94;5062469;28;19916;-80
2023/07/21 01:54:42;;;;;;;;;;;;;;;25.97;100.00;98869.19;5059269;28;19981;-81
2023/07/21 01:57:09;;;;;;;;;;;;;;;26.01;100.00;98873.81;5077888;28;19916;-80
2023/07/21 01:59:36;;;;;;;;;;;;;;;26.03;100.00;98862.75;5059851;28;19974;-80
2023/07/21 02:02:02;;;;;;;;;;;;;;;25.95;100.00;98860.53;5065232;28;20327;-80
2023/07/21 02:04:27;;;;;;;;;;;;;;;25.89;100.00;98861.56;5072234;28;19919;-80
2023/07/21 02:06:53;;;;;;;;;;;;;;;25.74;100.00;98869.56;5082694;28;20348;-80
2023/07/21 02:09:20;;;;;;;;;;;;;;;25.77;100.00;98863.63;5065567;28;19925;-80
2023/07/21 02:11:46;;;;;;;;;;;;;;;25.77;100.00;98859.03;5053069;28;19943;-80
2023/07/21 02:14:28;;;;;;;;;;;;;;;25.88;100.00;98865.31;5062878;28;19920;-80
2023/07/21 02:16:54;;;;;;;;;;;;;;;25.87;100.00;98869.09;5065497;28;20073;-80
2023/07/21 02:19:20;;;;;;;;;;;;;;;25.89;100.00;98861.56;5065994;28;20428;-80
2023/07/21 02:21:45;;;;;;;;;;;;;;;25.78;100.00;98855.25;5063805;28;20003;-80
2023/07/21 02:24:10;;;;;;;;;;;;;;;25.79;100.00;98856.09;5068013;28;20387;-80
2023/07/21 02:26:36;;;;;;;;;;;;;;;25.76;100.00;98861.97;5081328;28;19916;-80
2023/07/21 02:29:01;;;;;;;;;;;;;;;25.65;100.00;98856.50;5081173;28;19981;-81
2023/07/21 02:31:27;;;;;;;;;;;;;;;25.70;100.00;98861.13;5083398;28;19921;-80
2023/07/21 02:33:52;;;;;;;;;;;;;;;25.60;100.00;98872.66;5063248;28;19928;-81
2023/07/21 02:36:17;;;;;;;;;;;;;;;25.25;100.00;98872.28;5063716;28;19916;-80
2023/07/21 02:38:43;;;;;;;;;;;;;;;25.02;100.00;98873.41;5086374;28;19924;-80
2023/07/21 02:41:09;;;;;;;;;;;;;;;24.95;100.00;98872.78;5062640;28;19984;-80
2023/07/21 02:43:35;;;;;;;;;;;;;;;25.02;100.00;98878.78;5083615;28;19973;-80
2023/07/21 02:46:00;;;;;;;;;;;;;;;25.08;100.00;98871.56;5080793;28;19928;-80
2023/07/21 02:48:26;;;;;;;;;;;;;;;24.97;100.00;98870.66;5059923;28;20378;-80
2023/07/21 02:50:52;;;;;;;;;;;;;;;24.96;100.00;98879.81;5083572;28;19943;-80
2023/07/21 02:53:19;;;;;;;;;;;;;;;24.97;100.00;98875.22;5065213;28;19920;-80
2023/07/21 02:55:47;;;;;;;;;;;;;;;24.93;100.00;98868.69;5063232;28;19942;-80
2023/07/21 02:58:13;;;;;;;;;;;;;;;24.93;100.00;98869.50;5066917;28;20353;-80
2023/07/21 03:00:39;;;;;;;;;;;;;;;24.95;100.00;98877.34;5062416;28;19935;-81
2023/07/21 03:03:16;;;;;;;;;;;;;;;24.94;100.00;98881.94;5062051;28;19977;-78
2023/07/21 03:05:45;;;;;;;;;;;;;;;24.96;100.00;98876.28;5061252;28;19912;-78
2023/07/21 03:08:12;;;;;;;;;;;;;;;24.96;100.00;98870.88;5061084;28;19916;-80
2023/07/21 03:10:37;;;;;;;;;;;;;;;25.05;100.00;98866.66;5062517;28;20295;-80
2023/07/21 03:13:03;;;;;;;;;;;;;;;25.13;100.00;98874.31;5066207;28;19916;-78
2023/07/21 03:15:31;;;;;;;16.25;10.95;;;;;;;25.13;100.00;98879.72;5063187;28;20059;-80
2023/07/21 03:18:02;;;;;;;12.68;10.60;;;;;;;25.14;100.00;98870.56;5064626;28;20032;-80
2023/07/21 03:20:32;;;;;;;;;;;;;;;25.15;100.00;98877.59;5064593;28;20150;-80
2023/07/21 03:22:57;;;;;;;16.77;10.65;;;;;;;25.25;100.00;98883.09;5062059;28;20004;-80
2023/07/21 03:25:23;;;;;;;16.02;11.25;;;;;;;25.26;100.00;98885.53;5061179;28;20059;-80
2023/07/21 03:27:48;;;;;;;18.15;11.45;;;;;;;25.26;100.00;98876.63;5082190;28;20028;-80
2023/07/21 03:30:18;;;;;;;14.07;11.10;;;;;;;25.22;100.00;98889.00;5067346;28;20389;-80
2023/07/21 03:32:51;;;;;;;13.82;10.00;;;;;;;25.18;100.00;98887.88;5064641;28;20597;-80
2023/07/21 03:35:18;;;;;;;14.70;10.18;;;;;;;25.19;100.00;98884.09;5061724;28;20032;-81
2023/07/21 03:37:45;;;;;;;;;;;;;;;25.20;100.00;98883.03;5063559;28;20024;-80
2023/07/21 03:40:11;;;;;;;;;;;;;;;25.16;100.00;98884.59;5063676;28;19923;-81
2023/07/21 03:42:36;;;;;;;;;;;;;;;25.05;100.00;98882.84;5081612;28;20358;-81
2023/07/21 03:45:05;;;;;;;;;;;;;;;25.10;100.00;98891.00;5081130;28;19919;-80
2023/07/21 03:47:34;;;;;;;;;;;;;;;25.06;100.00;98887.19;5062549;28;19925;-80
2023/07/21 03:49:59;;;;;;;;;;;;;;;25.02;100.00;98895.00;5057150;28;19922;-81
2023/07/21 03:52:27;;;;;;;;;;;;;;;25.05;100.00;98893.66;5082756;28;20370;-80
2023/07/21 03:54:52;;;;;;;;;;;;;;;25.05;100.00;98899.88;5045961;28;19920;-81
2023/07/21 03:57:19;;;;;;;;;;;;;;;25.06;100.00;98896.09;5062588;28;19985;-81
2023/07/21 03:59:45;;;;;;;;;;;;;;;25.08;100.00;98893.16;5064408;28;19916;-80
2023/07/21 04:02:10;;;;;;;;;;;;;;;25.10;100.00;98882.91;5079933;28;19917;-80
2023/07/21 04:04:35;;;;;;;;;;;;;;;25.10;100.00;98888.31;5060633;28;20006;-78
2023/07/21 04:07:01;;;;;;;;;;;;;;;25.10;100.00;98882.91;5061504;28;19912;-80
2023/07/21 04:09:27;;;;;;;;;;;;;;;25.09;100.00;98878.59;5080147;28;19927;-80
2023/07/21 04:11:53;;;;;;;;;;;;;;;25.13;100.00;98879.72;5081642;28;19912;-81
2023/07/21 04:14:18;;;;;;;;;;;;;;;25.18;100.00;98901.38;5063450;28;19924;-81
2023/07/21 04:16:43;;;;;;;;;;;;;;;25.18;100.00;98906.78;5080036;28;19993;-81
2023/07/21 04:19:09;;;;;;;;;;;;;;;25.13;100.00;98906.72;5083479;28;20398;-81
2023/07/21 04:21:35;;;;;;;;;;;;;;;25.10;100.00;98913.41;5060891;28;19962;-81
2023/07/21 04:24:00;;;;;;;;;;;;;;;25.15;100.00;98904.59;5062268;28;20027;-81
2023/07/21 04:26:25;;;;;;;;;;;;;;;25.20;100.00;98904.66;5063014;28;19916;-80
2023/07/21 04:28:51;;;;;;;;;;;;;;;25.23;100.00;98915.75;5061269;28;20388;-81
2023/07/21 04:31:22;;;;;;;;;;;;;;;25.26;100.00;98914.44;5062315;28;20010;-80
2023/07/21 04:33:57;;;;;;;;;;;;;;;25.24;100.00;98920.06;5062963;28;19916;-81
2023/07/21 04:36:22;;;;;;;;;;;;;;;25.30;100.00;98929.06;5060808;28;19941;-80
2023/07/21 04:38:48;;;;;;;;;;;;;;;25.32;100.00;98928.81;5065041;28;19916;-81
2023/07/21 04:41:16;;;;;;;;;;;;;;;25.34;100.00;98930.16;5061730;28;19916;-81
2023/07/21 04:43:42;;;;;;;;;;;;;;;25.35;100.00;98939.09;5063538;28;20005;-80
2023/07/21 04:46:09;;;;;;;;;;;;;;;25.28;100.00;98931.19;5063126;28;19916;-78
2023/07/21 04:48:37;;;;;;;;;;;;;;;25.15;100.00;98920.78;5045709;28;20285;-80
2023/07/21 04:51:06;;;;;;;;;;;;;;;25.24;100.00;98924.66;5062739;28;19916;-80
2023/07/21 04:53:31;;;;;;;;;;;;;;;25.29;100.00;98932.81;5081541;28;19931;-80
2023/07/21 04:55:57;;;;;;;;;;;;;;;25.29;100.00;98932.81;5061402;28;19920;-80
2023/07/21 04:58:24;;;;;;;;;;;;;;;25.31;100.00;98930.69;5064389;28;19956;-80
2023/07/21 05:00:50;;;;;;;;;;;;;;;25.34;100.00;98935.56;5060979;28;20005;-80
2023/07/21 05:03:15;;;;;;;;;;;;;;;25.34;100.00;98930.16;5063494;28;19920;-80
2023/07/21 05:05:43;;;;;;;;;;;;;;;25.39;100.00;98940.22;5060856;28;20390;-79
2023/07/21 05:08:08;;;;;;;;;;;;;;;25.40;100.00;98937.25;5079881;28;19916;-80
2023/07/21 05:10:35;;;;;;;;;;;;;;;25.41;100.00;98936.19;5080381;28;19942;-80
2023/07/21 05:13:01;;;;;;;;;;;;;;;25.45;100.00;98936.50;5081472;28;19935;-81
2023/07/21 05:15:46;;;;;;;;;;;;;;;25.46;100.00;98938.94;5058807;28;19920;-81
2023/07/21 05:18:37;;;;;;;;;;;;;;;25.51;100.00;98936.28;5072106;28;19916;-81
2023/07/21 05:21:13;;;;;;;;;;;;;;;25.49;100.00;98938.44;5076399;28;19954;-81
2023/07/21 05:23:46;;;;;;;;;;;;;;;25.54;100.00;98941.19;5062937;28;19916;-82
2023/07/21 05:26:14;;;;;;;;;;;;;;;25.55;100.00;98937.44;5063093;28;19924;-80
2023/07/21 05:28:40;;;;;;;;;;;;;;;25.55;100.00;98929.34;5077779;28;19912;-79
2023/07/21 05:31:06;;;;;;;;;;;;;;;25.57;100.00;98929.91;5065195;28;19917;-81
2023/07/21 05:33:58;;;;;;;;;;;;;;;25.60;100.00;98921.31;5080425;28;19912;-81
2023/07/21 05:36:24;;;;;;;;;;;;;;;25.60;100.00;98921.31;5065098;28;19916;-82
2023/07/21 05:38:51;;;;;;;;;;;;;;;25.65;100.00;98923.22;5064670;28;19912;-80
2023/07/21 05:41:18;;;;;;;;;;;;;;;25.64;100.00;98925.13;5064748;28;19955;-81
2023/07/21 05:43:44;;;;;;;;;;;;;;;25.68;100.00;98923.53;5066132;28;19912;-81
2023/07/21 05:46:10;;;;;;;;;;;;;;;25.69;100.00;98927.03;5084132;28;19938;-81
2023/07/21 05:48:41;;;;;;;;;;;;;;;25.72;100.00;98931.97;5061819;28;19916;-82
2023/07/21 05:51:13;;;;;;;;;;;;;;;25.72;100.00;98936.53;5074119;28;19952;-82
2023/07/21 05:53:40;;;;;;;;;;;;;;;25.77;100.00;98928.47;5063109;28;19970;-82
2023/07/21 05:56:07;;;;;;;;;;;;;;;25.79;100.00;98921.75;5060042;28;19916;-82
2023/07/21 05:59:01;;;;;;;;;;;;;;;25.84;100.00;98921.81;5073414;28;19952;-82
2023/07/21 06:01:27;;;;;;;;;;;;;;;25.88;100.00;98919.38;5047264;28;19962;-81
2023/07/21 06:03:52;;;;;;;;;;;;;;;25.85;100.00;98925.31;5051630;28;19961;-82
2023/07/21 06:06:17;;;;;;;;;;;;;;;25.88;100.00;98919.38;5197813;22;19925;-81
2023/07/21 06:08:53;;;;;;;;;;;;;;;25.85;100.00;98926.13;5064809;28;19966;-80
2023/07/21 06:11:39;;;;;;;;;;;;;;;25.91;100.00;98924.28;5044042;28;20379;-79
2023/07/21 06:14:28;;;;;;;;;;;;;;;25.96;100.00;98916.22;5057693;28;20076;-80
2023/07/21 06:17:19;;;;;;;;;;;;;;;26.02;100.00;98926.00;5050680;28;19920;-80
2023/07/21 06:19:48;;;;;;;;;;;;;;;26.07;100.00;98926.84;5051285;28;20301;-81
2023/07/21 06:22:13;;;;;;;;;;;;;;;26.08;100.00;98919.56;5043380;28;19920;-80
2023/07/21 06:24:39;;;;;;;;;;;;;;;26.12;100.00;98920.66;5046884;28;19923;-80
2023/07/21 06:27:05;;;;;;;;;;;;;;;26.20;100.00;98922.91;5059158;28;19996;-80
2023/07/21 06:29:31;;;;;;;;;;;;;;;26.23;100.00;98927.81;5041128;28;20410;-82
2023/07/21 06:31:57;;;;;;;;;;;;;;;26.28;100.00;98925.13;5041194;28;19917;-79
2023/07/21 06:34:22;;;;;;;;;;;;;;;26.31;100.00;98924.63;5046591;28;20473;-80
2023/07/21 06:37:05;;;;;;;;;;;;;;;26.34;100.00;98937.63;5040467;28;20007;-78
2023/07/21 06:39:48;;;;;;;;;;;;;;;26.39;100.00;98940.38;5044589;28;19913;-78
2023/07/21 06:42:28;;;;;;;;;;;;;;;26.42;100.00;98942.56;5044628;28;20022;-79
2023/07/21 06:44:58;;;;;;;;;;;;;;;26.46;100.00;98942.84;5051147;28;20363;-82
2023/07/21 06:47:47;;;;;;;;;;;;;;;26.41;100.00;98940.94;5012912;28;20377;-77
2023/07/21 06:50:17;;;;;;;;;;;;;;;26.33;100.00;98944.09;5037348;28;19927;-77
2023/07/21 06:52:49;;;;;;;;;;;;;;;26.34;100.00;98944.94;5042912;28;20376;-78
2023/07/21 06:55:15;;;;;;;;;;;;;;;26.33;100.00;98949.50;5047922;28;19952;-77
2023/07/21 06:57:41;;;;;;;;;;;;;;;26.35;100.00;98944.66;5047509;28;20380;-78
2023/07/21 07:00:07;;;;;;;;;;;;;;;26.26;100.00;98948.94;5045153;28;19932;-79
2023/07/21 07:02:33;;;;;;;;;;;;;;;26.21;100.00;98940.78;5064265;28;20443;-75
2023/07/21 07:04:59;;;;;;;;;;;;;;;26.21;100.00;98951.59;5061566;28;19922;-75
2023/07/21 07:07:24;;;;;;;;;;;;;;;26.22;100.00;98945.06;5042300;28;19931;-84
2023/07/21 07:09:49;;;;;;;;;;;;;;;26.25;100.00;98939.19;5059005;28;19927;-83
2023/07/21 07:12:17;;;;;;;;;;;;;;;26.28;100.00;98930.56;5048254;28;19961;-81
2023/07/21 07:14:46;;;;;;;;;;;;;;;26.28;100.00;98930.56;5046634;28;19916;-82
2023/07/21 07:17:12;;;;;;;;;;;;;;;26.15;100.00;98914.75;5065851;28;20007;-82
2023/07/21 07:19:38;;;;;;;;;;;;;;;26.11;100.00;98902.81;5045407;28;20099;-83
2023/07/21 07:22:05;;;;;;;;;;;;;;;26.25;100.00;98885.09;5069924;28;19962;-81
2023/07/21 07:24:30;;;;;;;;;;;;;;;26.24;100.00;98869.94;5059846;28;20016;-83
2023/07/21 07:26:56;;;;;;;;;;;;;;;26.28;100.00;98844.00;5061508;28;20007;-83
2023/07/21 07:29:21;;;;;;;;;;;;;;;26.35;100.00;98828.34;5059670;28;19963;-82
2023/07/21 07:31:46;;;;;;;;;;;;;;;26.51;100.00;98799.47;5048937;28;19916;-83
2023/07/21 07:34:12;;;;;;;;;;;;;;;26.66;100.00;98787.91;5064134;28;19916;-83
2023/07/21 07:36:37;;;;;;;;;;;;;;;26.79;100.00;98776.59;5046429;28;19936;-82
2023/07/21 07:39:03;;;;;;;;;;;;;;;26.87;100.00;98781.47;5061151;28;19984;-81
2023/07/21 07:41:28;;;;;;;;;;;;;;;26.89;100.00;98801.00;5062760;28;20008;-81
2023/07/21 07:43:54;;;;;;;;;;;;;;;26.97;100.00;98824.88;5062981;28;19916;-86
2023/07/21 07:46:19;;;;;;;;;;;;;;;26.88;100.00;98850.81;5044118;28;19916;-83
2023/07/21 07:48:45;;;;;;;;;;;;;;;26.81;100.00;98871.88;5042618;28;19916;-82
2023/07/21 07:51:10;;;;;;;;;;;;;;;26.73;100.00;98872.38;5061893;28;19916;-83
2023/07/21 07:53:37;;;;;;;;;;;;;;;26.73;100.00;98856.16;5055692;28;19916;-84
2023/07/21 07:56:03;;;;;;;;;;;;;;;26.72;100.00;98835.56;5059732;28;20615;-83
2023/07/21 07:58:28;;;;;;;;;;;;;;;26.73;100.00;98835.31;5062759;28;19974;-83
2023/07/21 08:00:58;;;;;;;;;;;;;;;26.71;100.00;98828.53;5060639;28;19916;-82
2023/07/21 08:03:24;;;;;;;;;;;;;;;26.69;100.00;98828.78;5061919;28;19917;-81
2023/07/21 08:05:50;;;;;;;;;;;;;;;26.63;100.00;98850.66;5064156;28;20383;-83
2023/07/21 08:08:18;;;;;;;;;;;;;;;26.58;100.00;98864.19;5041149;28;19938;-83
2023/07/21 08:10:44;;;;;;;;;;;;;;;26.55;100.00;98876.34;5060990;28;19916;-82
2023/07/21 08:13:10;;;;;;;;;;;;;;;26.55;100.00;98878.25;5062821;28;19916;-82
2023/07/21 08:15:35;;;;;;;;;;;;;;;26.58;100.00;98864.19;5062965;28;19927;-81
2023/07/21 08:18:01;;;;;;;;;;;;;;;26.57;100.00;98863.38;5063555;28;19930;-82
2023/07/21 08:20:26;;;;;;;;;;;;;;;26.53;100.00;98861.47;5046226;28;20031;-81
2023/07/21 08:22:51;;;;;;;;;;;;;;;26.48;100.00;98854.94;5045128;28;19927;-82
2023/07/21 08:25:17;;;;;;;;;;;;;;;26.40;100.00;98857.31;5062074;28;20383;-82
2023/07/21 08:27:43;;;;;;;;;;;;;;;26.39;100.00;98856.50;5041304;28;19923;-82
2023/07/21 08:30:08;;;;;;;;;;;;;;;26.37;100.00;98853.28;5061432;28;20049;-82
2023/07/21 08:32:35;;;;;;;;;;;;;;;26.43;100.00;98862.22;5063472;28;20048;-83
2023/07/21 08:35:00;;;;;;;;;;;;;;;26.52;100.00;98854.41;5061841;28;20367;-80
2023/07/21 08:37:26;;;;;;;;;;;;;;;26.55;100.00;98857.41;5044513;28;19927;-83
2023/07/21 08:39:52;;;;;;;;;;;;;;;26.57;100.00;98857.16;5054389;28;20372;-83
2023/07/21 08:42:17;;;;;;;;;;;;;;;26.58;100.00;98858.78;5060027;28;19989;-83
2023/07/21 08:44:43;;;;;;;;;;;;;;;26.65;100.00;98862.06;5062531;28;20368;-82
2023/07/21 08:47:09;;;;;;;;;;;;;;;26.65;100.00;98872.88;5062594;28;19925;-83
2023/07/21 08:49:34;;;;;;;;;;;;;;;26.63;100.00;98872.31;5040160;28;19920;-82
2023/07/21 08:51:59;;;;;;;;;;;;;;;26.71;100.00;98874.53;5062827;28;20356;-82
2023/07/21 08:54:25;;;;;;;;;;;;;;;26.76;100.00;98877.25;5060459;28;19990;-83
2023/07/21 08:56:50;;;;;;;;;;;;;;;26.80;100.00;98868.34;5043989;28;19947;-83
2023/07/21 08:59:18;;;;;;;;;;;;;;;26.83;100.00;98883.25;5061726;28;19923;-81
2023/07/21 09:01:44;;;;;;;;;;;;;;;26.82;100.00;98884.31;5057889;28;19916;-82
2023/07/21 09:04:22;;;;;;;;;;;;;;;26.80;100.00;98889.22;5060784;28;19922;-81
2023/07/21 09:06:55;;;;;;;;;;;;;;;26.82;100.00;98887.03;5056690;28;19916;-82
2023/07/21 09:09:22;;;;;;;;;;;;;;;26.89;100.00;98893.06;5059116;28;19994;-83
2023/07/21 09:11:48;;;;;;;;;;;;;;;26.85;100.00;98908.19;5061086;28;20376;-81
2023/07/21 09:14:14;;;;;;;;;;;;;;;26.85;100.00;98900.88;5058559;28;20042;-83
2023/07/21 09:16:39;;;;;;;;;;;;;;;26.84;100.00;98891.13;5040384;28;19916;-83
2023/07/21 09:19:05;;;;;;;;;;;;;;;26.80;100.00;98889.22;5060535;28;20399;-83
2023/07/21 09:21:32;;;;;;;;;;;;;;;26.84;100.00;98888.41;5062213;28;20376;-82
2023/07/21 09:24:01;;;;;;;;;;;;;;;26.89;100.00;98893.88;5062358;28;19916;-82
2023/07/21 09:26:26;;;;;;;;;;;;;;;26.92;100.00;98892.50;5059587;28;19924;-83
2023/07/21 09:28:52;;;;;;;;;;;;;;;26.97;100.00;98895.25;5060306;28;19917;-83
2023/07/21 09:31:17;;;;;;;;;;;;;;;26.99;100.00;98887.66;5060385;28;20063;-82
2023/07/21 09:33:46;;;;;;;;;;;;;;;27.00;100.00;98881.19;5061440;28;20369;-83
2023/07/21 09:36:13;;;;;;;;;;;;;;;26.97;100.00;98884.44;5059476;28;19982;-82
2023/07/21 09:38:39;;;;;;;;;;;;;;;26.97;100.00;98873.59;5060650;28;19920;-82
2023/07/21 09:41:06;;;;;;;;;;;;;;;26.89;100.00;98871.41;5058338;28;19917;-83
2023/07/21 09:43:32;;;;;;;;;;;;;;;26.91;100.00;98873.84;5061293;28;20410;-83
2023/07/21 09:46:01;;;;;;;;;;;;;;;26.84;100.00;98858.63;5061187;28;19916;-82
2023/07/21 09:48:27;;;;;;;;;;;;;;;26.87;100.00;98857.28;5059195;28;20369;-82
2023/07/21 09:50:56;;;;;;;;;;;;;;;26.94;100.00;98851.66;5060269;28;19952;-82
2023/07/21 09:53:25;;;;;;;;;;;;;;;26.83;100.00;98850.78;5061053;28;19923;-82
2023/07/21 09:55:51;;;;;;;;;;;;;;;26.96;100.00;98861.13;5058905;28;20276;-83
2023/07/21 09:58:18;;;;;;;;;;;;;;;27.03;100.00;98867.13;5058784;28;19924;-83
2023/07/21 10:00:44;;;;;;;;;;;;;;;27.09;100.00;98866.06;5062509;28;19923;-80
2023/07/21 10:03:11;;;;;;;;;;;;;;;27.19;100.00;98870.69;5059937;28;19922;-83
2023/07/21 10:05:38;;;;;;;;;;;;;;;27.25;100.00;98867.72;5060800;28;19917;-82
2023/07/21 10:08:04;;;;;;;;;;;;;;;27.25;100.00;98867.72;5061340;28;19920;-84
2023/07/21 10:10:30;;;;;;;;;;;;;;;27.39;100.00;98859.09;5058774;28;19927;-82
2023/07/21 10:12:55;;;;;;;;;;;;;;;27.46;100.00;98854.19;5061353;28;19916;-81
2023/07/21 10:15:21;;;;;;;;;;;;;;;27.53;100.00;98854.78;5057388;28;19916;-82
2023/07/21 10:18:00;;;;;;;;;;;;;;;27.54;100.00;98845.56;5045957;28;19916;-82
2023/07/21 10:20:40;;;;;;;;;;;;;;;27.61;100.00;98836.09;5067177;28;19920;-83
2023/07/21 10:23:06;;;;;;;;;;;;;;;27.66;100.00;98832.56;5059398;28;20015;-83
2023/07/21 10:25:47;;;;;;;;;;;;;;;27.71;100.00;98829.84;5060248;28;19966;-84
2023/07/21 10:28:13;;;;;;;;;;;;;;;27.80;100.00;98825.53;5049033;28;20373;-83
2023/07/21 10:30:39;;;;;;;;;;;;;;;27.88;100.00;98818.72;5061998;28;19963;-84
2023/07/21 10:33:11;;;;;;;;;;;;;;;27.92;100.00;98815.19;5066807;28;20372;-84
2023/07/21 10:35:37;;;;;;;;;;;;;;;27.97;100.00;98804.38;5058181;28;19935;-83
2023/07/21 10:38:09;;;;;;;;;;;;;;;28.06;100.00;98804.59;5045865;28;19998;-83
2023/07/21 10:40:34;;;;;;;;;;;;;;;28.15;100.00;98805.72;5064722;28;20300;-82
2023/07/21 10:42:59;;;;;;;;;;;;;;;28.25;100.00;98802.16;5061600;28;19917;-83
2023/07/21 10:45:27;;;;;;;;;;;;;;;28.31;100.00;98806.47;5064496;28;20326;-82
2023/07/21 10:47:53;;;;;;;;;;;;;;;28.39;100.00;98803.22;5049460;28;19979;-82
2023/07/21 10:50:18;;;;;;;;;;;;;;;28.49;100.00;98797.72;5063281;28;19920;-83
2023/07/21 10:52:47;;;;;;;;;;;;;;;28.59;100.00;98796.88;5061813;28;19960;-83
2023/07/21 10:55:17;;;;;;;;;;;;;;;28.67;100.00;98788.97;5060599;28;20051;-83
2023/07/21 10:57:43;;;;;;;;;;;;;;;28.72;100.00;98785.41;5067490;28;20251;-83
2023/07/21 11:00:09;;;;;;;;;;;;;;;28.78;100.00;98779.72;5060802;28;19943;-84
2023/07/21 11:02:38;;;;;;;;;;;;;;;28.87;100.00;98788.06;5062045;28;19916;-83
2023/07/21 11:05:04;;;;;;;;;;;;;;;28.98;100.00;98783.41;5067078;28;19923;-83
2023/07/21 11:07:30;;;;;;;;;;;;;;;29.06;100.00;98785.50;5040647;28;19921;-82
2023/07/21 11:09:59;;;;;;;;;;;;;;;29.18;100.00;98777.81;5032661;28;20009;-81
2023/07/21 11:12:24;;;;;;;;;;;;;;;29.25;100.00;98770.19;5040775;28;19963;-81
2023/07/21 11:14:49;;;;;;;;;;;;;;;29.26;100.00;98769.91;5038775;28;19951;-83
2023/07/21 11:17:15;;;;;;;;;;;;;;;29.21;100.00;98769.13;5042004;28;20357;-83
2023/07/21 11:19:41;;;;;;;;;;;;;;;29.30;100.00;98764.69;5040773;28;20036;-83
2023/07/21 11:22:07;;;;;;;;;;;;;;;29.43;100.00;98764.09;5044487;28;20376;-82
2023/07/21 11:24:32;;;;;;;;;;;;;;;29.55;100.00;98772.69;5041678;28;19925;-82
2023/07/21 11:27:05;;;;;;;;;;;;;;;29.66;100.00;98774.22;5041347;28;19990;-82
2023/07/21 11:29:30;;;;;;;;;;;;;;;29.80;100.00;98779.00;5042679;28;19927;-85
2023/07/21 11:31:56;;;;;;;;;;;;;;;29.86;100.00;98766.97;5041792;28;19917;-81
2023/07/21 11:34:25;;;;;;;;;;;;;;;29.93;100.00;98772.88;4344337;28;10000648;-82
2023/07/21 11:36:58;;;;;;;;;;;;;;;29.99;100.00;98755.41;5039731;28;19920;-83
2023/07/21 11:39:24;;;;;;;;;;;;;;;30.05;100.00;98759.69;5039892;28;20003;-83
2023/07/21 11:41:53;;;;;;;;;;;;;;;30.11;100.00;98764.00;5038447;28;19924;-82
2023/07/21 11:44:20;;;;;;;;;;;;;;;30.22;100.00;98762.78;5040725;28;19968;-83
2023/07/21 11:46:54;;;;;;;;;;;;;;;30.35;100.00;98759.34;5039537;28;19927;-83
2023/07/21 11:49:45;;;;;;;;;;;;;;;30.44;100.00;98757.63;4887757;28;9999708;-83
2023/07/21 11:52:11;;;;;;;;;;;;;;;30.56;100.00;98742.81;5031021;28;19986;-82
2023/07/21 11:54:41;;;;;;;;;;;;;;;30.64;98.91;98753.84;5036155;28;20338;-83
2023/07/21 11:57:07;;;;;;;;;;;;;;;30.70;97.80;98749.13;5037045;28;19917;-84
2023/07/21 11:59:32;;;;;;;;;;;;;;;30.67;100.00;98750.56;5036674;28;19921;-85
2023/07/21 12:01:58;;;;;;;;;;;;;;;30.74;100.00;98744.75;5029297;28;19928;-83
2023/07/21 12:04:24;;;;;;;;;;;;;;;30.89;100.00;98749.97;5034841;28;19976;-83
2023/07/21 12:06:50;;;;;;;;;;;;;;;30.95;100.00;98746.06;5052046;28;19947;-82
2023/07/21 12:09:16;;;;;;;;;;;;;;;30.97;100.00;98749.31;5054238;28;20343;-83
2023/07/21 12:11:42;;;;;;;;;;;;;;;30.95;100.00;98751.50;5063111;28;19916;-84
2023/07/21 12:14:08;;;;;;;;;;;;;;;30.90;100.00;98749.69;5062521;28;19917;-83
2023/07/21 12:16:34;;;;;;;;;;;;;;;30.89;100.00;98739.06;5054313;28;19924;-83
2023/07/21 12:19:00;;;;;;;;;;;;;;;30.79;100.00;98747.38;5060574;28;19916;-86
2023/07/21 12:21:25;;;;;;;;;;;;;;;30.70;100.00;98749.13;5057656;28;19927;-85
2023/07/21 12:23:51;;;;;;;;;;;;;;;30.55;100.00;98746.63;5055173;28;19924;-82
2023/07/21 12:26:17;;;;;;;;;;;;;;;30.68;100.00;98745.91;5058644;28;20478;-83
2023/07/21 12:28:44;;;;;;;;;;;;;;;30.81;100.00;98748.69;5059990;28;19916;-84
2023/07/21 12:31:09;;;;;;;;;;;;;;;31.03;100.00;98750.84;5061531;28;19923;-83
2023/07/21 12:33:35;;;;;;;;;;;;;;;31.14;100.00;98748.81;5062232;28;19916;-82